createdAt,value
2022-08-18T00:01:18.842Z,19.30
2022-08-18T00:03:57.360Z,19.20
2022-08-18T00:06:30.112Z,19.10
2022-08-18T00:09:00.711Z,19.10
2022-08-18T00:11:41.417Z,19.10
2022-08-18T00:14:22.193Z,19.00
2022-08-18T00:16:55.788Z,19.00
2022-08-18T00:19:46.923Z,19.00
2022-08-18T00:22:18.482Z,19.00
2022-08-18T00:24:50.528Z,19.00
2022-08-18T00:27:28.605Z,19.10
2022-08-18T00:30:01.058Z,19.00
2022-08-18T00:32:34.149Z,19.00
2022-08-18T00:35:10.252Z,19.00
2022-08-18T00:37:39.430Z,19.00
2022-08-18T00:40:12.370Z,19.00
2022-08-18T00:42:46.257Z,19.00
2022-08-18T00:45:23.923Z,18.90
2022-08-18T00:47:55.437Z,18.80
2022-08-18T00:50:34.194Z,18.70
2022-08-18T00:53:08.219Z,18.60
2022-08-18T00:55:37.892Z,18.60
2022-08-18T00:58:17.211Z,18.60
2022-08-18T01:00:47.915Z,18.50
2022-08-18T01:03:24.588Z,18.50
2022-08-18T01:06:00.104Z,18.40
2022-08-18T01:08:29.736Z,18.40
2022-08-18T01:11:02.758Z,18.50
2022-08-18T01:13:35.069Z,18.50
2022-08-18T01:16:25.683Z,18.50
2022-08-18T01:19:12.278Z,18.40
2022-08-18T01:21:53.832Z,18.40
2022-08-18T01:24:44.101Z,18.30
2022-08-18T01:27:19.052Z,18.30
2022-08-18T01:29:50.642Z,18.20
2022-08-18T01:32:23.644Z,18.20
2022-08-18T01:34:55.144Z,18.20
2022-08-18T01:37:25.998Z,18.20
2022-08-18T01:41:21.074Z,18.10
2022-08-18T01:42:47.061Z,18.10
2022-08-18T01:45:18.353Z,18.10
2022-08-18T01:47:58.361Z,18.10
2022-08-18T01:50:28.088Z,18.00
2022-08-18T01:52:56.680Z,17.90
2022-08-18T01:55:28.920Z,17.80
2022-08-18T01:57:58.047Z,17.70
2022-08-18T02:00:26.560Z,17.60
2022-08-18T02:03:01.957Z,17.50
2022-08-18T02:05:43.811Z,17.50
2022-08-18T02:08:13.711Z,17.50
2022-08-18T02:10:45.802Z,17.50
2022-08-18T02:13:14.394Z,17.50
2022-08-18T02:15:43.159Z,17.50
2022-08-18T02:18:37.205Z,17.50
2022-08-18T02:25:37.302Z,17.40
2022-08-18T02:32:59.680Z,17.50
2022-08-18T02:35:28.296Z,17.50
2022-08-18T02:38:00.074Z,17.50
2022-08-18T02:44:59.758Z,17.50
2022-08-18T02:47:33.459Z,17.50
2022-08-18T02:50:03.752Z,17.60
2022-08-18T02:57:22.378Z,17.60
2022-08-18T03:04:30.402Z,17.70
2022-08-18T03:07:04.615Z,17.80
2022-08-18T03:14:03.652Z,17.80
2022-08-18T03:16:32.906Z,17.80
2022-08-18T03:23:33.100Z,17.60
2022-08-18T03:26:01.914Z,17.60
2022-08-18T03:33:02.356Z,17.60
2022-08-18T03:35:37.649Z,17.70
2022-08-18T03:51:47.185Z,17.70
2022-08-18T03:54:18.081Z,17.80
2022-08-18T03:56:49.500Z,17.80
2022-08-18T04:03:49.861Z,18.00
2022-08-18T04:06:30.147Z,18.10
2022-08-18T04:13:19.891Z,18.00
2022-08-18T04:15:48.379Z,17.90
2022-08-18T04:18:42.373Z,17.90
2022-08-18T04:21:14.523Z,17.90
2022-08-18T04:28:13.490Z,17.90
2022-08-18T04:30:43.507Z,17.90
2022-08-18T04:37:49.500Z,18.00
2022-08-18T04:40:24.329Z,18.10
2022-08-18T04:43:02.836Z,18.20
2022-08-18T04:45:32.426Z,18.30
2022-08-18T04:48:02.426Z,18.40
2022-08-18T04:55:03.254Z,18.70
2022-08-18T04:57:34.777Z,18.90
2022-08-18T05:04:53.455Z,19.20
2022-08-18T05:07:23.974Z,19.40
2022-08-18T05:09:55.090Z,19.50
2022-08-18T05:12:25.880Z,19.60
2022-08-18T05:19:26.045Z,19.90
2022-08-18T05:21:57.673Z,20.10
2022-08-18T05:24:37.071Z,20.30
2022-08-18T05:31:33.211Z,20.70
2022-08-18T05:34:04.181Z,21.10
2022-08-18T05:45:54.592Z,21.50
2022-08-18T05:48:23.392Z,21.70
2022-08-18T05:50:53.082Z,21.80
2022-08-18T05:58:16.180Z,22.10
2022-08-18T06:00:57.510Z,22.30
2022-08-18T06:08:06.069Z,22.60
2022-08-18T06:10:35.497Z,22.70
2022-08-18T06:13:09.163Z,22.80
2022-08-18T06:20:29.988Z,22.90
2022-08-18T06:23:26.366Z,23.10
2022-08-18T06:26:08.982Z,23.20
2022-08-18T06:33:37.034Z,23.50
2022-08-18T06:40:42.149Z,23.90
2022-08-18T06:43:17.159Z,23.80
2022-08-18T06:50:27.731Z,24.00
2022-08-18T06:57:30.533Z,24.70
2022-08-18T07:00:05.758Z,25.00
2022-08-18T07:12:06.862Z,25.70
2022-08-18T07:14:48.219Z,26.10
2022-08-18T07:17:43.407Z,26.30
2022-08-18T07:24:47.085Z,26.90
2022-08-18T07:27:19.027Z,27.30
2022-08-18T07:30:06.500Z,27.50
2022-08-18T07:41:59.846Z,27.80
2022-08-18T07:49:05.488Z,28.10
2022-08-18T07:51:53.074Z,28.20
2022-08-18T07:58:56.062Z,28.50
2022-08-18T08:01:38.721Z,28.80
2022-08-18T08:13:54.733Z,29.40
2022-08-18T08:16:38.889Z,29.50
2022-08-18T08:23:45.072Z,29.70
2022-08-18T08:26:37.856Z,29.90
2022-08-18T08:38:42.977Z,30.40
2022-08-18T08:42:30.845Z,30.60
2022-08-18T08:50:21.647Z,30.80
2022-08-18T09:02:46.713Z,31.00
2022-08-18T09:05:19.745Z,30.90
2022-08-18T09:08:14.614Z,31.00
2022-08-18T09:11:15.547Z,31.10
2022-08-18T09:14:17.711Z,31.10
2022-08-18T09:21:44.434Z,31.10
2022-08-18T09:24:29.119Z,31.20
2022-08-18T09:27:27.996Z,31.00
2022-08-18T09:34:51.445Z,31.20
2022-08-18T09:37:27.203Z,31.50
2022-08-18T09:45:02.482Z,31.60
2022-08-18T09:48:43.852Z,31.60
2022-08-18T09:56:01.687Z,31.60
2022-08-18T09:58:58.869Z,31.90
2022-08-18T10:01:41.329Z,32.00
2022-08-18T10:09:01.925Z,32.10
2022-08-18T10:17:13.161Z,32.40
2022-08-18T10:24:38.176Z,32.60
2022-08-18T10:32:38.148Z,32.50
2022-08-18T10:35:52.633Z,32.50
2022-08-18T10:38:30.980Z,32.60
2022-08-18T10:45:59.394Z,32.60
2022-08-18T10:48:35.865Z,32.90
2022-08-18T10:51:22.899Z,33.00
2022-08-18T10:54:01.898Z,33.20
2022-08-18T11:01:16.078Z,33.50
2022-08-18T11:08:48.043Z,33.70
2022-08-18T11:11:33.639Z,33.80
2022-08-18T11:18:45.459Z,34.00
2022-08-18T11:21:34.247Z,34.10
2022-08-18T11:24:19.434Z,34.10
2022-08-18T11:35:54.027Z,34.40
2022-08-18T11:38:23.579Z,34.50
2022-08-18T11:45:57.556Z,34.40
2022-08-18T11:48:51.911Z,34.10
2022-08-18T11:51:25.527Z,33.80
2022-08-18T11:54:01.100Z,33.60
2022-08-18T11:59:55.114Z,33.90
2022-08-18T12:07:11.138Z,33.80
2022-08-18T12:10:16.665Z,33.90
2022-08-18T12:17:10.700Z,34.20
2022-08-18T12:19:39.741Z,34.00
2022-08-18T12:22:19.863Z,33.90
2022-08-18T12:24:49.283Z,33.90
2022-08-18T12:27:21.439Z,34.00
2022-08-18T12:29:52.171Z,34.00
2022-08-18T12:32:50.138Z,34.00
2022-08-18T12:35:13.294Z,34.00
2022-08-18T12:42:08.144Z,33.90
2022-08-18T12:44:39.476Z,33.90
2022-08-18T12:47:15.107Z,34.10
2022-08-18T12:54:12.665Z,34.20
2022-08-18T12:56:42.793Z,34.40
2022-08-18T12:59:12.689Z,34.40
2022-08-18T13:06:34.841Z,34.40
2022-08-18T13:09:03.584Z,34.10
2022-08-18T13:11:45.091Z,33.90
2022-08-18T13:19:05.978Z,33.60
2022-08-18T13:21:41.170Z,33.60
2022-08-18T13:24:12.728Z,33.70
2022-08-18T13:26:46.192Z,33.70
2022-08-18T13:29:17.566Z,33.60
2022-08-18T13:31:56.178Z,33.50
2022-08-18T13:34:29.919Z,33.50
2022-08-18T13:36:59.122Z,33.60
2022-08-18T13:39:33.625Z,33.70
2022-08-18T13:42:26.303Z,33.70
2022-08-18T13:53:50.375Z,33.50
2022-08-18T13:56:20.668Z,33.40
2022-08-18T13:59:00.193Z,33.30
2022-08-18T14:01:51.595Z,33.30
2022-08-18T14:09:19.617Z,33.30
2022-08-18T14:11:56.770Z,33.10
2022-08-18T14:14:26.657Z,33.10
2022-08-18T14:16:56.358Z,33.10
2022-08-18T14:19:42.957Z,33.10
2022-08-18T14:22:29.217Z,32.90
2022-08-18T14:25:16.173Z,32.90
2022-08-18T14:42:41.346Z,32.70
2022-08-18T14:45:26.590Z,32.70
2022-08-18T15:02:00.866Z,32.40
2022-08-18T15:04:30.738Z,32.40
2022-08-18T15:06:59.986Z,32.40
2022-08-18T15:09:30.379Z,32.30
2022-08-18T15:16:51.348Z,32.30
2022-08-18T15:19:58.553Z,32.20
2022-08-18T15:38:35.393Z,31.90
2022-08-18T15:41:06.277Z,31.80
2022-08-18T15:43:40.049Z,31.80
2022-08-18T15:50:53.098Z,31.70
2022-08-18T15:53:29.626Z,31.60
2022-08-18T15:56:04.186Z,31.50
2022-08-18T16:07:41.175Z,31.20
2022-08-18T16:10:14.955Z,31.00
2022-08-18T16:12:46.462Z,31.00
2022-08-18T16:15:19.605Z,30.90
2022-08-18T16:17:52.337Z,30.80
2022-08-18T16:20:23.796Z,30.80
2022-08-18T16:31:53.276Z,30.50
2022-08-18T16:34:22.275Z,30.30
2022-08-18T16:36:50.981Z,30.20
2022-08-18T16:39:19.636Z,30.10
2022-08-18T16:41:49.109Z,29.90
2022-08-18T16:48:59.443Z,29.70
2022-08-18T16:55:57.544Z,29.30
2022-08-18T16:58:43.530Z,29.20
2022-08-18T17:10:29.351Z,28.70
2022-08-18T17:12:58.982Z,28.50
2022-08-18T17:15:32.458Z,28.40
2022-08-18T17:18:02.998Z,28.30
2022-08-18T17:20:34.526Z,28.20
2022-08-18T17:36:54.961Z,27.40
2022-08-18T17:39:30.689Z,27.10
2022-08-18T17:42:16.647Z,26.80
2022-08-18T17:44:52.672Z,26.70
2022-08-18T17:47:37.213Z,26.50
2022-08-18T17:55:02.924Z,26.10
2022-08-18T18:11:48.497Z,25.30
2022-08-18T18:14:27.739Z,25.20
2022-08-18T18:17:12.763Z,25.10
2022-08-18T18:19:44.515Z,25.00
2022-08-18T18:22:24.240Z,24.90
2022-08-18T18:24:55.751Z,24.80
2022-08-18T18:32:02.770Z,24.60
2022-08-18T18:34:39.714Z,24.50
2022-08-18T18:41:42.640Z,24.30
2022-08-18T18:44:15.220Z,24.10
2022-08-18T18:51:33.435Z,24.00
2022-08-18T18:54:18.108Z,24.00
2022-08-18T18:56:54.032Z,23.90
2022-08-18T18:59:41.084Z,24.00
2022-08-18T19:02:33.234Z,23.90
2022-08-18T19:09:32.717Z,23.70
2022-08-18T19:12:17.092Z,23.50
2022-08-18T19:24:10.274Z,23.00
2022-08-18T19:26:50.631Z,22.90
2022-08-18T19:29:27.369Z,22.80
2022-08-18T19:32:16.916Z,22.70
2022-08-18T19:39:18.111Z,22.60
2022-08-18T19:42:01.956Z,22.60
2022-08-18T19:49:04.642Z,22.40
2022-08-18T19:51:37.646Z,22.20
2022-08-18T19:59:18.592Z,22.10
2022-08-18T20:06:52.184Z,22.00
2022-08-18T20:09:51.592Z,22.10
2022-08-18T20:16:43.840Z,22.00
2022-08-18T20:19:59.635Z,21.90
2022-08-18T20:27:40.083Z,21.90
2022-08-18T20:30:29.724Z,21.90
2022-08-18T20:33:30.911Z,21.80
2022-08-18T20:36:27.041Z,21.80
2022-08-18T20:43:31.826Z,21.70
2022-08-18T20:46:22.629Z,21.80
2022-08-18T20:49:13.274Z,21.70
2022-08-18T20:56:32.113Z,21.60
2022-08-18T20:59:20.064Z,21.60
2022-08-18T21:06:32.724Z,21.50
2022-08-18T21:09:02.731Z,21.40
2022-08-18T21:20:41.151Z,21.40
2022-08-18T21:23:15.067Z,21.40
2022-08-18T21:34:52.732Z,21.40
2022-08-18T21:42:21.207Z,21.30
2022-08-18T21:49:24.832Z,21.20
2022-08-18T21:56:49.116Z,21.20
2022-08-18T21:59:21.466Z,21.20
2022-08-18T22:01:53.064Z,21.20
2022-08-18T22:04:33.543Z,21.20
2022-08-18T22:16:36.288Z,21.20
2022-08-18T22:23:57.603Z,21.20
2022-08-18T22:26:30.703Z,21.20
2022-08-18T22:29:05.454Z,21.20
2022-08-18T22:36:06.495Z,21.20
2022-08-18T22:38:35.804Z,21.10
2022-08-18T22:46:01.962Z,20.90
2022-08-18T22:48:30.607Z,20.80
2022-08-18T22:50:59.255Z,20.80
2022-08-18T22:53:29.905Z,20.70
2022-08-18T23:00:49.747Z,20.60
2022-08-18T23:03:18.479Z,20.50
2022-08-18T23:05:47.568Z,20.40
2022-08-18T23:08:16.152Z,20.30
2022-08-18T23:15:43.876Z,20.10
2022-08-18T23:18:12.839Z,20.10
2022-08-18T23:25:13.472Z,20.20
2022-08-18T23:27:42.572Z,20.10
2022-08-18T23:30:12.418Z,20.00
2022-08-18T23:32:43.735Z,19.90
2022-08-18T23:35:12.299Z,19.90
2022-08-18T23:42:12.317Z,19.80
2022-08-18T23:44:43.379Z,19.80
2022-08-18T23:47:11.932Z,19.80
2022-08-18T23:54:19.784Z,19.80
2022-08-18T23:56:49.324Z,19.90
2022-08-18T23:59:20.536Z,19.80
